Time,TemperatureF,DewpointF,PressureIn,WindDirection,WindDirectionDegrees,WindSpeedMPH,WindSpeedGustMPH,Humidity,HourlyPrecipIn,Conditions,Clouds,dailyrainin,SolarRadiationWatts/m^2,SoftwareType,DateUTC
2013-06-16 00:02:00,62.0,50.0,29.91,NNW,334,0.0,0.0,65,0.00,,,0.06,0.000000,,2013-06-16 04:02:00,
2013-06-16 00:23:00,60.0,48.0,29.91,NNW,334,0.0,0.0,64,0.01,,,0.07,0.000000,,2013-06-16 04:23:00,
2013-06-16 00:34:00,60.0,48.0,29.91,NNW,334,0.0,0.0,64,0.01,,,0.07,0.000000,,2013-06-16 04:34:00,
2013-06-16 00:43:00,60.0,48.0,29.91,NNW,334,0.0,0.0,64,0.01,,,0.07,0.000000,,2013-06-16 04:43:00,
2013-06-16 00:53:00,60.0,48.0,29.91,NNW,334,0.0,0.0,64,0.01,,,0.07,0.000000,,2013-06-16 04:53:00,
2013-06-16 01:02:00,60.0,48.0,29.91,NNW,334,0.0,0.0,64,0.01,,,0.07,0.000000,,2013-06-16 05:02:00,
2013-06-16 01:52:00,59.0,46.0,29.90,NNW,334,0.0,0.0,63,0.00,,,0.07,0.000000,,2013-06-16 05:52:00,
2013-06-16 02:02:00,59.0,46.0,29.90,NNW,334,0.0,0.0,63,0.00,,,0.07,0.000000,,2013-06-16 06:02:00,
2013-06-16 02:12:00,59.0,47.0,29.91,NNW,334,0.0,0.0,64,0.00,,,0.07,0.000000,,2013-06-16 06:12:00,
2013-06-16 02:23:00,59.0,47.0,29.91,NNW,334,0.0,0.0,64,0.00,,,0.07,0.000000,,2013-06-16 06:23:00,
2013-06-16 02:33:00,59.0,47.0,29.91,NNW,334,0.0,0.0,64,0.00,,,0.07,0.000000,,2013-06-16 06:33:00,
2013-06-16 02:43:00,59.0,47.0,29.91,NNW,334,0.0,0.0,64,0.00,,,0.07,0.000000,,2013-06-16 06:43:00,
2013-06-16 02:52:00,59.0,47.0,29.91,NNW,334,0.0,0.0,64,0.00,,,0.07,0.000000,,2013-06-16 06:52:00,
2013-06-16 03:01:00,57.0,47.0,29.91,NNW,334,0.0,0.0,70,0.00,,,0.06,0.000000,,2013-06-16 07:01:00,
2013-06-16 03:12:00,57.0,47.0,29.91,NNW,334,0.0,0.0,70,0.00,,,0.06,0.000000,,2013-06-16 07:12:00,
2013-06-16 03:23:00,57.0,47.0,29.91,NNW,334,0.0,0.0,70,0.00,,,0.06,0.000000,,2013-06-16 07:23:00,
2013-06-16 03:33:00,57.0,47.0,29.91,NNW,334,0.0,0.0,70,0.00,,,0.06,0.000000,,2013-06-16 07:33:00,
2013-06-16 03:43:00,57.0,47.0,29.91,NNW,334,0.0,0.0,70,0.00,,,0.06,0.000000,,2013-06-16 07:43:00,
2013-06-16 04:12:00,56.0,46.0,29.89,NNW,334,0.0,0.0,69,0.00,,,0.06,0.000000,,2013-06-16 08:12:00,
2013-06-16 04:22:00,56.0,46.0,29.89,NNW,334,0.0,0.0,69,0.00,,,0.06,0.000000,,2013-06-16 08:22:00,
2013-06-16 04:34:00,56.0,46.0,29.89,NNW,334,0.0,0.0,69,0.00,,,0.06,0.000000,,2013-06-16 08:34:00,
2013-06-16 04:43:00,56.0,46.0,29.89,NNW,334,0.0,0.0,69,0.00,,,0.06,0.000000,,2013-06-16 08:43:00,
2013-06-16 04:54:00,56.0,46.0,29.89,NNW,334,0.0,0.0,69,0.00,,,0.06,0.000000,,2013-06-16 08:54:00,
2013-06-16 05:02:00,56.0,46.0,29.89,NNW,334,0.0,0.0,69,0.00,,,0.06,0.000000,,2013-06-16 09:02:00,
2013-06-16 05:11:00,56.0,46.0,29.90,NNW,334,0.0,0.0,68,0.00,,,0.06,0.000000,,2013-06-16 09:11:00,
2013-06-16 05:22:00,56.0,46.0,29.90,NNW,334,0.0,0.0,68,0.00,,,0.06,0.000000,,2013-06-16 09:22:00,
2013-06-16 05:33:00,56.0,46.0,29.90,NNW,334,0.0,0.0,68,0.00,,,0.06,0.000000,,2013-06-16 09:33:00,
2013-06-16 05:43:00,56.0,46.0,29.90,NNW,334,0.0,0.0,68,0.00,,,0.06,0.000000,,2013-06-16 09:43:00,
2013-06-16 05:52:00,56.0,46.0,29.90,NNW,334,0.0,0.0,68,0.00,,,0.06,0.000000,,2013-06-16 09:52:00,
2013-06-16 06:11:00,55.0,47.0,29.91,NNW,334,0.0,0.0,73,0.00,,,0.06,40.000000,,2013-06-16 10:11:00,
2013-06-16 06:33:00,55.0,47.0,29.91,NNW,334,0.0,0.0,73,0.00,,,0.06,40.000000,,2013-06-16 10:33:00,
2013-06-16 06:43:00,55.0,47.0,29.91,NNW,334,0.0,0.0,73,0.00,,,0.06,40.000000,,2013-06-16 10:43:00,
2013-06-16 06:54:00,55.0,47.0,29.91,NNW,334,0.0,0.0,73,0.00,,,0.06,40.000000,,2013-06-16 10:54:00,
2013-06-16 07:02:00,55.0,47.0,29.91,NNW,334,0.0,0.0,73,0.00,,,0.06,40.000000,,2013-06-16 11:02:00,
2013-06-16 07:34:00,56.0,48.0,29.91,NNW,334,0.0,0.0,74,0.01,,,0.06,39.000000,,2013-06-16 11:34:00,
2013-06-16 07:43:00,56.0,48.0,29.91,NNW,334,0.0,0.0,74,0.01,,,0.06,39.000000,,2013-06-16 11:43:00,
2013-06-16 07:53:00,56.0,48.0,29.91,NNW,334,0.0,0.0,74,0.01,,,0.06,39.000000,,2013-06-16 11:53:00,
2013-06-16 08:02:00,56.0,48.0,29.91,NNW,334,0.0,0.0,74,0.01,,,0.06,39.000000,,2013-06-16 12:02:00,
2013-06-16 08:12:00,58.0,49.0,29.92,NNW,334,0.0,0.0,72,0.00,,,0.06,135.000000,,2013-06-16 12:12:00,
2013-06-16 08:22:00,58.0,49.0,29.92,NNW,334,0.0,0.0,72,0.00,,,0.06,135.000000,,2013-06-16 12:22:00,
2013-06-16 08:33:00,58.0,49.0,29.92,NNW,334,0.0,0.0,72,0.00,,,0.06,135.000000,,2013-06-16 12:33:00,
2013-06-16 08:43:00,58.0,49.0,29.92,NNW,334,0.0,0.0,72,0.00,,,0.06,135.000000,,2013-06-16 12:43:00,
2013-06-16 08:53:00,62.0,51.0,29.91,NNW,334,0.0,0.0,68,0.00,,,0.06,462.000000,,2013-06-16 12:53:00,
2013-06-16 09:01:00,62.0,51.0,29.91,NNW,334,0.0,0.0,68,0.00,,,0.06,462.000000,,2013-06-16 13:01:00,
2013-06-16 09:12:00,62.0,51.0,29.91,NNW,334,0.0,0.0,68,0.00,,,0.06,462.000000,,2013-06-16 13:12:00,
2013-06-16 09:22:00,62.0,51.0,29.91,NNW,334,0.0,0.0,68,0.00,,,0.06,462.000000,,2013-06-16 13:22:00,
2013-06-16 09:34:00,62.0,51.0,29.91,NNW,334,0.0,0.0,68,0.00,,,0.06,462.000000,,2013-06-16 13:34:00,
2013-06-16 09:43:00,69.0,54.0,29.90,NNW,334,0.0,0.0,59,0.00,,,0.06,250.000000,,2013-06-16 13:43:00,
2013-06-16 09:54:00,69.0,54.0,29.90,NNW,334,0.0,0.0,59,0.00,,,0.06,250.000000,,2013-06-16 13:54:00,
2013-06-16 10:02:00,71.0,55.0,29.89,NNW,331,1.0,1.0,57,0.00,,,0.06,740.000000,,2013-06-16 14:02:00,
2013-06-16 10:12:00,71.0,55.0,29.89,NNW,331,1.0,1.0,57,0.00,,,0.06,740.000000,,2013-06-16 14:12:00,
2013-06-16 10:22:00,71.0,55.0,29.89,NNW,331,1.0,1.0,57,0.00,,,0.06,740.000000,,2013-06-16 14:22:00,
2013-06-16 10:34:00,71.0,55.0,29.89,NNW,331,1.0,1.0,57,0.00,,,0.06,740.000000,,2013-06-16 14:34:00,
2013-06-16 10:43:00,71.0,55.0,29.89,NNW,331,1.0,1.0,57,0.00,,,0.06,740.000000,,2013-06-16 14:43:00,
2013-06-16 11:23:00,76.0,55.0,29.87,NW,321,0.0,0.0,48,0.00,,,0.05,371.000000,,2013-06-16 15:23:00,
2013-06-16 11:34:00,76.0,55.0,29.87,NW,321,0.0,0.0,48,0.00,,,0.05,371.000000,,2013-06-16 15:34:00,
2013-06-16 11:43:00,76.0,55.0,29.87,NW,321,0.0,0.0,48,0.00,,,0.05,371.000000,,2013-06-16 15:43:00,
2013-06-16 11:53:00,76.0,55.0,29.87,NW,321,0.0,0.0,48,0.00,,,0.05,371.000000,,2013-06-16 15:53:00,
2013-06-16 12:02:00,76.0,55.0,29.87,NW,321,0.0,0.0,48,0.00,,,0.05,371.000000,,2013-06-16 16:02:00,
2013-06-16 12:23:00,72.0,56.0,29.85,WSW,249,0.0,0.0,58,0.01,,,0.06,169.000000,,2013-06-16 16:23:00,
2013-06-16 12:33:00,72.0,56.0,29.85,WSW,249,0.0,0.0,58,0.01,,,0.06,169.000000,,2013-06-16 16:33:00,
2013-06-16 12:43:00,72.0,56.0,29.85,WSW,249,0.0,0.0,58,0.01,,,0.06,169.000000,,2013-06-16 16:43:00,
2013-06-16 12:53:00,71.0,57.0,29.83,WNW,287,0.0,0.0,61,0.00,,,0.06,376.000000,,2013-06-16 16:53:00,
2013-06-16 13:02:00,71.0,57.0,29.83,WNW,287,0.0,0.0,61,0.00,,,0.06,376.000000,,2013-06-16 17:02:00,
2013-06-16 13:12:00,71.0,57.0,29.83,WNW,287,0.0,0.0,61,0.00,,,0.06,376.000000,,2013-06-16 17:12:00,
2013-06-16 13:22:00,71.0,57.0,29.83,WNW,287,0.0,0.0,61,0.00,,,0.06,376.000000,,2013-06-16 17:22:00,
2013-06-16 13:34:00,72.0,58.0,29.83,WSW,253,0.0,0.0,62,0.00,,,0.05,146.000000,,2013-06-16 17:34:00,
2013-06-16 13:43:00,72.0,58.0,29.83,WSW,253,0.0,0.0,62,0.00,,,0.05,146.000000,,2013-06-16 17:43:00,
2013-06-16 13:53:00,72.0,58.0,29.83,WSW,253,0.0,0.0,62,0.00,,,0.05,146.000000,,2013-06-16 17:53:00,
2013-06-16 14:02:00,72.0,58.0,29.83,WSW,253,0.0,0.0,62,0.00,,,0.05,146.000000,,2013-06-16 18:02:00,
2013-06-16 14:12:00,72.0,60.0,29.82,WSW,257,0.0,0.0,66,0.00,,,0.05,274.000000,,2013-06-16 18:12:00,
2013-06-16 14:22:00,72.0,60.0,29.82,WSW,257,0.0,0.0,66,0.00,,,0.05,274.000000,,2013-06-16 18:22:00,
2013-06-16 14:34:00,72.0,60.0,29.82,WSW,257,0.0,0.0,66,0.00,,,0.05,274.000000,,2013-06-16 18:34:00,
2013-06-16 14:43:00,72.0,60.0,29.82,WSW,257,0.0,0.0,66,0.00,,,0.05,274.000000,,2013-06-16 18:43:00,
2013-06-16 14:52:00,72.0,60.0,29.82,WSW,257,0.0,0.0,66,0.00,,,0.05,274.000000,,2013-06-16 18:52:00,
2013-06-16 15:02:00,73.0,61.0,29.78,WSW,250,0.0,0.0,65,0.00,,,0.05,320.000000,,2013-06-16 19:02:00,
2013-06-16 15:12:00,73.0,61.0,29.78,WSW,250,0.0,0.0,65,0.00,,,0.05,320.000000,,2013-06-16 19:12:00,
2013-06-16 15:22:00,73.0,61.0,29.78,WSW,250,0.0,0.0,65,0.00,,,0.05,320.000000,,2013-06-16 19:22:00,
2013-06-16 15:34:00,72.0,58.0,29.76,North,358,0.0,0.0,61,0.00,,,0.05,209.000000,,2013-06-16 19:34:00,
2013-06-16 15:43:00,72.0,58.0,29.76,North,358,0.0,0.0,61,0.00,,,0.05,209.000000,,2013-06-16 19:43:00,
2013-06-16 15:54:00,72.0,58.0,29.76,North,358,0.0,0.0,61,0.00,,,0.05,209.000000,,2013-06-16 19:54:00,
2013-06-16 16:02:00,72.0,58.0,29.76,North,358,0.0,0.0,61,0.00,,,0.05,209.000000,,2013-06-16 20:02:00,
2013-06-16 16:12:00,72.0,59.0,29.75,WSW,251,0.0,0.0,63,0.00,,,0.05,100.000000,,2013-06-16 20:12:00,
2013-06-16 16:22:00,72.0,59.0,29.75,WSW,251,0.0,0.0,63,0.00,,,0.05,100.000000,,2013-06-16 20:22:00,
2013-06-16 16:33:00,72.0,59.0,29.75,WSW,251,0.0,0.0,63,0.00,,,0.05,100.000000,,2013-06-16 20:33:00,
2013-06-16 16:42:00,72.0,59.0,29.75,WSW,251,0.0,0.0,63,0.00,,,0.05,100.000000,,2013-06-16 20:42:00,
2013-06-16 16:53:00,72.0,59.0,29.75,WSW,251,0.0,0.0,63,0.00,,,0.05,100.000000,,2013-06-16 20:53:00,
2013-06-16 17:53:00,70.0,56.0,29.71,WNW,282,2.0,2.0,62,0.00,,,0.05,84.000000,,2013-06-16 21:53:00,
2013-06-16 18:02:00,70.0,56.0,29.71,WNW,282,2.0,2.0,62,0.00,,,0.05,84.000000,,2013-06-16 22:02:00,
2013-06-16 18:12:00,70.0,56.0,29.71,WNW,282,2.0,2.0,62,0.00,,,0.05,84.000000,,2013-06-16 22:12:00,
2013-06-16 18:22:00,70.0,56.0,29.71,WNW,282,2.0,2.0,62,0.00,,,0.05,84.000000,,2013-06-16 22:22:00,
2013-06-16 18:32:00,70.0,58.0,29.70,WNW,302,3.0,3.0,65,0.00,,,0.05,121.000000,,2013-06-16 22:32:00,
2013-06-16 18:42:00,70.0,58.0,29.70,WNW,302,3.0,3.0,65,0.00,,,0.05,121.000000,,2013-06-16 22:42:00,
2013-06-16 18:52:00,70.0,58.0,29.70,WNW,302,3.0,3.0,65,0.00,,,0.05,121.000000,,2013-06-16 22:52:00,
2013-06-16 19:02:00,70.0,59.0,29.70,WSW,252,0.0,0.0,68,0.00,,,0.05,70.000000,,2013-06-16 23:02:00,
2013-06-16 19:11:00,70.0,59.0,29.70,WSW,252,0.0,0.0,68,0.00,,,0.05,70.000000,,2013-06-16 23:11:00,
2013-06-16 19:22:00,70.0,59.0,29.70,WSW,252,0.0,0.0,68,0.00,,,0.05,70.000000,,2013-06-16 23:22:00,
2013-06-16 19:32:00,70.0,59.0,29.70,WSW,252,0.0,0.0,68,0.00,,,0.05,70.000000,,2013-06-16 23:32:00,
2013-06-16 19:42:00,70.0,59.0,29.70,WSW,252,0.0,0.0,68,0.00,,,0.05,70.000000,,2013-06-16 23:42:00,
2013-06-16 19:52:00,70.0,61.0,29.69,West,276,0.0,0.0,73,0.00,,,0.04,63.000000,,2013-06-16 23:52:00,
2013-06-16 20:02:00,70.0,61.0,29.69,West,276,0.0,0.0,73,0.00,,,0.04,63.000000,,2013-06-17 00:02:00,
2013-06-16 20:12:00,70.0,61.0,29.69,West,276,0.0,0.0,73,0.00,,,0.04,63.000000,,2013-06-17 00:12:00,
2013-06-16 20:22:00,70.0,62.0,29.70,NW,317,0.0,1.0,76,0.00,,,0.04,16.000000,,2013-06-17 00:22:00,
2013-06-16 20:32:00,70.0,62.0,29.70,SW,236,1.0,2.0,77,0.00,,,0.04,11.000000,,2013-06-17 00:32:00,
2013-06-16 20:43:00,69.0,61.0,29.70,SW,236,1.0,2.0,77,0.00,,,0.04,11.000000,,2013-06-17 00:43:00,
2013-06-16 20:53:00,69.0,62.0,29.71,SW,236,0.0,3.0,78,0.00,,,0.04,0.000000,,2013-06-17 00:53:00,
2013-06-16 21:02:00,69.0,63.0,29.71,SW,236,0.0,2.0,80,0.00,,,0.04,0.000000,,2013-06-17 01:02:00,
2013-06-16 21:12:00,69.0,63.0,29.71,SW,236,0.0,2.0,80,0.00,,,0.04,0.000000,,2013-06-17 01:12:00,
2013-06-16 21:22:00,69.0,63.0,29.71,SW,236,1.0,2.0,81,0.00,,,0.04,0.000000,,2013-06-17 01:22:00,
2013-06-16 21:32:00,69.0,63.0,29.71,SW,236,0.0,2.0,81,0.00,,,0.04,0.000000,,2013-06-17 01:32:00,
2013-06-16 21:43:00,68.0,62.0,29.71,SW,236,1.0,2.0,82,0.00,,,0.04,0.000000,,2013-06-17 01:43:00,
2013-06-16 21:53:00,68.0,62.0,29.71,SW,236,0.0,3.0,82,0.00,,,0.04,0.000000,,2013-06-17 01:53:00,
2013-06-16 22:02:00,68.0,63.0,29.72,SW,236,0.0,3.0,83,0.00,,,0.04,0.000000,,2013-06-17 02:02:00,
2013-06-16 22:12:00,68.0,63.0,29.72,SW,236,1.0,2.0,84,0.00,,,0.04,0.000000,,2013-06-17 02:12:00,
2013-06-16 22:22:00,68.0,63.0,29.72,SW,236,0.0,2.0,84,0.00,,,0.04,0.000000,,2013-06-17 02:22:00,
2013-06-16 22:34:00,68.0,63.0,29.73,SW,236,0.0,2.0,83,0.00,,,0.04,0.000000,,2013-06-17 02:34:00,
2013-06-16 22:43:00,68.0,63.0,29.73,SW,236,0.0,1.0,83,0.01,,,0.05,0.000000,,2013-06-17 02:43:00,
2013-06-16 22:53:00,68.0,63.0,29.73,SW,236,0.0,1.0,83,0.01,,,0.05,0.000000,,2013-06-17 02:53:00,
2013-06-16 23:02:00,68.0,63.0,29.73,SW,236,0.0,1.0,83,0.01,,,0.05,0.000000,,2013-06-17 03:02:00,
2013-06-16 23:12:00,68.0,63.0,29.73,South,175,0.0,0.0,83,0.01,,,0.05,0.000000,,2013-06-17 03:12:00,
2013-06-16 23:22:00,68.0,63.0,29.74,WSW,246,0.0,0.0,83,0.01,,,0.05,0.000000,,2013-06-17 03:22:00,
2013-06-16 23:33:00,68.0,62.0,29.75,NW,319,0.0,3.0,82,0.01,,,0.05,0.000000,,2013-06-17 03:33:00,
2013-06-16 23:44:00,68.0,61.0,29.75,NE,56,2.0,4.0,79,0.00,,,0.05,0.000000,,2013-06-17 03:44:00,
2013-06-16 23:53:00,68.0,61.0,29.75,NW,323,2.0,3.0,77,0.00,,,0.05,0.000000,,2013-06-17 03:53:00,